createdAt,value
2023-09-11T00:01:40.392Z,88.79
2023-09-11T00:04:08.356Z,88.96
2023-09-11T00:06:35.297Z,88.94
2023-09-11T00:09:02.263Z,88.60
2023-09-11T00:11:29.046Z,88.64
2023-09-11T00:13:55.945Z,89.24
2023-09-11T00:16:22.692Z,89.57
2023-09-11T00:18:49.510Z,89.12
2023-09-11T00:21:16.244Z,88.74
2023-09-11T00:23:43.081Z,88.49
2023-09-11T00:26:10.018Z,88.46
2023-09-11T00:28:37.060Z,88.24
2023-09-11T00:31:04.028Z,88.06
2023-09-11T00:33:30.836Z,88.27
2023-09-11T00:35:58.487Z,88.79
2023-09-11T00:38:25.565Z,88.87
2023-09-11T00:40:53.702Z,88.68
2023-09-11T00:43:20.484Z,88.45
2023-09-11T00:45:47.846Z,88.22
2023-09-11T00:48:15.145Z,88.01
2023-09-11T00:50:45.456Z,88.78
2023-09-11T00:53:13.157Z,88.99
2023-09-11T00:55:40.460Z,89.16
2023-09-11T00:58:07.594Z,88.64
2023-09-11T01:00:34.521Z,88.65
2023-09-11T01:03:01.538Z,88.79
2023-09-11T01:05:30.452Z,88.92
2023-09-11T01:07:57.315Z,88.74
2023-09-11T01:10:24.230Z,89.24
2023-09-11T01:12:51.162Z,89.69
2023-09-11T01:15:18.217Z,89.40
2023-09-11T01:17:58.565Z,89.34
2023-09-11T01:20:37.210Z,89.89
2023-09-11T01:23:21.745Z,89.54
2023-09-11T01:26:26.789Z,90.22
2023-09-11T01:29:19.827Z,90.80
2023-09-11T01:31:48.229Z,91.16
2023-09-11T01:34:15.165Z,91.05
2023-09-11T01:36:42.121Z,90.46
2023-09-11T01:39:09.420Z,90.35
2023-09-11T01:41:45.530Z,89.97
2023-09-11T01:44:30.871Z,89.86
2023-09-11T01:46:58.838Z,89.98
2023-09-11T01:49:26.859Z,90.11
2023-09-11T01:51:54.256Z,89.72
2023-09-11T01:54:21.851Z,89.20
2023-09-11T01:56:48.872Z,89.93
2023-09-11T01:59:19.179Z,89.66
2023-09-11T02:01:46.229Z,90.46
2023-09-11T02:04:13.536Z,89.68
2023-09-11T02:06:40.482Z,89.20
2023-09-11T02:09:07.484Z,89.23
2023-09-11T02:11:34.313Z,89.61
2023-09-11T02:14:01.182Z,89.55
2023-09-11T02:16:28.243Z,90.21
2023-09-11T02:18:55.079Z,89.99
2023-09-11T02:21:22.396Z,89.62
2023-09-11T02:23:49.287Z,89.84
2023-09-11T02:26:16.213Z,89.96
2023-09-11T02:28:43.386Z,89.84
2023-09-11T02:31:10.528Z,89.33
2023-09-11T02:33:37.468Z,89.30
2023-09-11T02:36:05.237Z,89.18
2023-09-11T02:38:33.210Z,89.61
2023-09-11T02:41:09.216Z,89.81
2023-09-11T02:43:37.524Z,89.47
2023-09-11T02:46:04.593Z,89.55
2023-09-11T02:48:33.783Z,89.49
2023-09-11T02:51:00.873Z,89.36
2023-09-11T02:53:27.761Z,90.00
2023-09-11T02:55:54.553Z,90.03
2023-09-11T02:58:21.287Z,89.68
2023-09-11T03:00:48.214Z,89.83
2023-09-11T03:03:15.168Z,90.17
2023-09-11T03:05:42.564Z,90.34
2023-09-11T03:08:09.492Z,89.86
2023-09-11T03:10:36.647Z,89.83
2023-09-11T03:13:05.019Z,90.31
2023-09-11T03:15:32.188Z,90.50
2023-09-11T03:17:59.536Z,90.85
2023-09-11T03:20:26.362Z,90.87
2023-09-11T03:22:55.255Z,90.55
2023-09-11T03:25:22.157Z,91.23
2023-09-11T03:27:49.003Z,90.96
2023-09-11T03:30:15.916Z,91.36
2023-09-11T03:32:42.771Z,91.70
2023-09-11T03:35:09.681Z,91.07
2023-09-11T03:37:37.305Z,91.00
2023-09-11T03:40:24.609Z,90.78
2023-09-11T03:42:51.369Z,90.88
2023-09-11T03:45:18.183Z,90.85
2023-09-11T03:47:45.005Z,90.81
2023-09-11T03:50:11.937Z,90.71
2023-09-11T03:52:38.799Z,90.82
2023-09-11T03:55:05.748Z,90.49
2023-09-11T03:57:32.715Z,90.70
2023-09-11T03:59:59.608Z,90.76
2023-09-11T04:02:26.578Z,90.96
2023-09-11T04:04:53.370Z,90.96
2023-09-11T04:07:20.161Z,91.08
2023-09-11T04:09:46.955Z,90.76
2023-09-11T04:12:19.362Z,90.83
2023-09-11T04:14:47.241Z,90.72
2023-09-11T04:17:13.996Z,90.76
2023-09-11T04:19:40.969Z,90.94
2023-09-11T04:22:08.306Z,90.87
2023-09-11T04:24:35.074Z,91.02
2023-09-11T04:27:02.374Z,90.98
2023-09-11T04:29:30.487Z,90.88
2023-09-11T04:31:57.577Z,90.83
2023-09-11T04:34:24.501Z,90.92
2023-09-11T04:36:51.571Z,90.78
2023-09-11T04:39:18.725Z,90.84
2023-09-11T04:41:45.722Z,90.56
2023-09-11T04:44:12.498Z,90.58
2023-09-11T04:46:39.381Z,90.61
2023-09-11T04:49:06.623Z,90.61
2023-09-11T04:51:33.625Z,90.59
2023-09-11T04:54:00.563Z,90.43
2023-09-11T04:56:27.486Z,90.66
2023-09-11T04:58:54.235Z,90.55
2023-09-11T05:01:21.164Z,90.47
2023-09-11T05:03:48.140Z,90.54
2023-09-11T05:06:15.613Z,89.78
2023-09-11T05:09:02.217Z,90.02
2023-09-11T05:11:29.183Z,89.95
2023-09-11T05:13:56.012Z,89.76
2023-09-11T05:16:22.822Z,89.76
2023-09-11T05:18:49.788Z,89.77
2023-09-11T05:21:16.676Z,89.73
2023-09-11T05:23:44.418Z,89.82
2023-09-11T05:26:11.509Z,89.96
2023-09-11T05:28:38.574Z,89.79
2023-09-11T05:31:06.700Z,89.59
2023-09-11T05:33:33.698Z,89.53
2023-09-11T05:36:00.782Z,89.80
2023-09-11T05:38:27.669Z,89.40
2023-09-11T05:40:54.474Z,89.71
2023-09-11T05:43:21.270Z,89.54
2023-09-11T05:45:48.344Z,89.26
2023-09-11T05:48:15.765Z,89.09
2023-09-11T05:50:42.848Z,88.67
2023-09-11T05:53:09.829Z,88.91
2023-09-11T05:55:36.812Z,88.53
2023-09-11T05:58:04.020Z,88.61
2023-09-11T06:00:31.138Z,88.42
2023-09-11T06:02:58.199Z,88.22
2023-09-11T06:05:26.584Z,87.88
2023-09-11T06:07:53.623Z,87.63
2023-09-11T06:10:20.497Z,87.19
2023-09-11T06:12:47.506Z,87.06
2023-09-11T06:15:14.434Z,86.94
2023-09-11T06:17:45.090Z,86.65
2023-09-11T06:20:17.419Z,86.81
2023-09-11T06:22:44.929Z,86.43
2023-09-11T06:25:11.992Z,86.06
2023-09-11T06:27:38.766Z,85.84
2023-09-11T06:33:40.387Z,85.50
2023-09-11T06:36:07.406Z,85.42
2023-09-11T06:38:34.170Z,85.34
2023-09-11T06:41:01.013Z,85.17
2023-09-11T06:43:27.869Z,84.80
2023-09-11T06:45:54.695Z,84.33
2023-09-11T06:48:24.049Z,84.18
2023-09-11T06:50:54.702Z,83.77
2023-09-11T06:53:21.681Z,83.39
2023-09-11T06:55:49.301Z,83.15
2023-09-11T06:58:16.610Z,83.05
2023-09-11T07:00:43.607Z,82.31
2023-09-11T07:03:10.665Z,82.26
2023-09-11T07:05:40.109Z,81.94
2023-09-11T07:08:07.313Z,81.60
2023-09-11T07:10:40.688Z,81.01
2023-09-11T07:13:08.025Z,80.58
2023-09-11T07:15:34.809Z,79.07
2023-09-11T07:18:01.878Z,78.83
2023-09-11T07:20:29.046Z,77.74
2023-09-11T07:22:55.811Z,76.52
2023-09-11T07:25:24.916Z,75.10
2023-09-11T07:27:55.253Z,74.67
2023-09-11T07:30:22.134Z,74.53
2023-09-11T07:32:49.147Z,74.21
2023-09-11T07:35:16.357Z,74.20
2023-09-11T07:37:43.174Z,73.62
2023-09-11T07:40:10.218Z,72.25
2023-09-11T07:42:37.806Z,72.16
2023-09-11T07:45:04.955Z,71.85
2023-09-11T07:47:32.041Z,71.20
2023-09-11T07:49:59.085Z,71.12
2023-09-11T07:52:25.836Z,70.76
2023-09-11T07:54:52.588Z,69.38
2023-09-11T07:57:19.392Z,69.85
2023-09-11T07:59:46.299Z,68.90
2023-09-11T08:02:13.110Z,68.59
2023-09-11T08:04:40.789Z,68.29
2023-09-11T08:07:07.786Z,67.68
2023-09-11T08:09:34.566Z,67.28
2023-09-11T08:12:06.255Z,66.45
2023-09-11T08:14:33.131Z,66.20
2023-09-11T08:17:00.594Z,65.88
2023-09-11T08:19:27.383Z,64.80
2023-09-11T08:21:55.747Z,63.50
2023-09-11T08:24:24.256Z,64.06
2023-09-11T08:26:51.082Z,63.95
2023-09-11T08:29:19.969Z,63.85
2023-09-11T08:31:47.147Z,62.87
2023-09-11T08:34:14.089Z,62.06
2023-09-11T08:36:41.253Z,62.22
2023-09-11T08:39:08.916Z,62.07
2023-09-11T08:41:36.813Z,61.20
2023-09-11T08:44:03.747Z,60.60
2023-09-11T08:46:34.855Z,60.65
2023-09-11T08:49:04.129Z,60.75
2023-09-11T08:51:38.675Z,59.71
2023-09-11T08:54:06.377Z,58.57
2023-09-11T08:56:33.485Z,59.11
2023-09-11T08:59:00.867Z,60.47
2023-09-11T09:01:29.433Z,59.94
2023-09-11T09:03:58.030Z,59.51
2023-09-11T09:06:25.271Z,58.88
2023-09-11T09:08:52.464Z,58.42
2023-09-11T09:11:21.883Z,59.11
2023-09-11T09:13:48.745Z,57.73
2023-09-11T09:16:15.574Z,57.76
2023-09-11T09:18:50.842Z,56.34
2023-09-11T09:21:20.364Z,56.74
2023-09-11T09:23:50.070Z,56.06
2023-09-11T09:26:19.414Z,56.02
2023-09-11T09:28:55.475Z,55.17
2023-09-11T09:31:24.428Z,54.86
2023-09-11T09:33:58.209Z,55.31
2023-09-11T09:36:25.204Z,55.31
2023-09-11T09:38:52.836Z,54.46
2023-09-11T09:41:22.514Z,55.34
2023-09-11T09:43:54.994Z,54.69
2023-09-11T09:46:23.990Z,53.64
2023-09-11T09:48:51.441Z,52.66
2023-09-11T09:51:18.382Z,51.39
2023-09-11T09:53:48.043Z,50.72
2023-09-11T09:56:16.046Z,51.29
2023-09-11T09:58:45.962Z,50.29
2023-09-11T10:01:16.256Z,50.56
2023-09-11T10:03:48.143Z,51.47
2023-09-11T10:06:24.435Z,49.91
2023-09-11T10:09:12.602Z,48.82
2023-09-11T10:11:41.213Z,50.41
2023-09-11T10:14:09.959Z,50.02
2023-09-11T10:16:37.152Z,48.65
2023-09-11T10:19:04.783Z,48.95
2023-09-11T10:21:33.476Z,47.71
2023-09-11T10:24:00.647Z,48.01
2023-09-11T10:26:41.737Z,48.49
2023-09-11T10:29:12.157Z,47.17
2023-09-11T10:31:54.943Z,47.01
2023-09-11T10:34:22.504Z,47.32
2023-09-11T10:36:58.262Z,48.04
2023-09-11T10:39:25.853Z,48.23
2023-09-11T10:41:53.364Z,47.79
2023-09-11T10:44:20.562Z,47.05
2023-09-11T10:46:51.959Z,45.76
2023-09-11T10:49:21.235Z,46.95
2023-09-11T10:51:49.231Z,46.76
2023-09-11T10:54:25.283Z,47.06
2023-09-11T10:56:53.300Z,46.93
2023-09-11T10:59:23.914Z,46.09
2023-09-11T11:01:51.705Z,48.03
2023-09-11T11:04:22.160Z,45.54
2023-09-11T11:06:52.563Z,46.12
2023-09-11T11:09:34.718Z,46.42
2023-09-11T11:12:08.010Z,46.27
2023-09-11T11:14:35.428Z,46.41
2023-09-11T11:17:04.959Z,45.22
2023-09-11T11:19:37.231Z,44.49
2023-09-11T11:22:08.176Z,44.82
2023-09-11T11:24:50.734Z,45.33
2023-09-11T11:27:17.701Z,45.27
2023-09-11T11:29:44.569Z,44.80
2023-09-11T11:32:13.516Z,43.89
2023-09-11T11:34:42.901Z,44.35
2023-09-11T11:37:12.021Z,44.55
2023-09-11T11:39:39.157Z,46.09
2023-09-11T11:42:08.317Z,44.57
2023-09-11T11:44:36.968Z,44.13
2023-09-11T11:47:04.523Z,43.02
2023-09-11T11:49:31.664Z,41.65
2023-09-11T11:52:03.113Z,41.25
2023-09-11T11:54:31.043Z,42.05
2023-09-11T11:56:59.569Z,42.19
2023-09-11T11:59:40.666Z,41.71
2023-09-11T12:02:20.672Z,44.11
2023-09-11T12:04:50.082Z,42.74
2023-09-11T12:07:18.106Z,41.43
2023-09-11T12:09:45.550Z,43.47
2023-09-11T12:12:12.558Z,44.92
2023-09-11T12:14:40.549Z,42.98
2023-09-11T12:17:11.342Z,43.16
2023-09-11T12:19:38.202Z,42.11
2023-09-11T12:22:06.128Z,43.00
2023-09-11T12:24:33.077Z,45.18
2023-09-11T12:27:01.341Z,43.83
2023-09-11T12:29:31.222Z,42.96
2023-09-11T12:31:58.933Z,42.25
2023-09-11T12:34:25.814Z,43.86
2023-09-11T12:36:52.730Z,43.73
2023-09-11T12:39:19.983Z,44.33
2023-09-11T12:41:47.501Z,43.79
2023-09-11T12:44:14.424Z,43.56
2023-09-11T12:46:41.297Z,42.83
2023-09-11T12:49:08.225Z,43.84
2023-09-11T12:51:35.288Z,43.21
2023-09-11T12:54:03.613Z,44.73
2023-09-11T12:56:32.640Z,44.08
2023-09-11T12:58:59.867Z,43.84
2023-09-11T13:01:33.658Z,45.21
2023-09-11T13:04:00.756Z,44.95
2023-09-11T13:06:32.427Z,43.90
2023-09-11T13:08:59.256Z,44.30
2023-09-11T13:11:26.904Z,45.07
2023-09-11T13:14:08.325Z,44.35
2023-09-11T13:16:41.497Z,44.98
2023-09-11T13:19:08.333Z,45.55
2023-09-11T13:21:35.150Z,45.36
2023-09-11T13:24:02.234Z,45.41
2023-09-11T13:26:29.804Z,45.82
2023-09-11T13:28:56.536Z,46.02
2023-09-11T13:31:23.326Z,45.67
2023-09-11T13:33:51.529Z,45.77
2023-09-11T13:36:18.517Z,45.64
2023-09-11T13:38:45.765Z,46.43
2023-09-11T13:41:12.782Z,44.87
2023-09-11T13:43:39.876Z,44.66
2023-09-11T13:46:07.200Z,45.64
2023-09-11T13:48:34.246Z,46.03
2023-09-11T13:51:01.280Z,45.97
2023-09-11T13:53:28.190Z,46.11
2023-09-11T13:55:54.994Z,46.51
2023-09-11T13:58:21.767Z,45.26
2023-09-11T14:00:48.536Z,46.14
2023-09-11T14:03:15.916Z,45.95
2023-09-11T14:05:46.585Z,45.43
2023-09-11T14:08:14.900Z,44.59
2023-09-11T14:10:41.737Z,44.00
2023-09-11T14:13:11.781Z,42.86
2023-09-11T14:15:39.557Z,43.22
2023-09-11T14:18:07.074Z,41.43
2023-09-11T14:20:34.142Z,42.13
2023-09-11T14:23:00.965Z,41.47
2023-09-11T14:25:27.741Z,42.44
2023-09-11T14:27:54.518Z,42.96
2023-09-11T14:30:21.398Z,42.68
2023-09-11T14:32:48.384Z,44.58
2023-09-11T14:35:15.305Z,45.77
2023-09-11T14:37:42.260Z,45.04
2023-09-11T14:40:11.238Z,45.72
2023-09-11T14:42:38.139Z,45.15
2023-09-11T14:45:06.656Z,45.49
2023-09-11T14:47:33.654Z,44.88
2023-09-11T14:50:02.102Z,44.18
2023-09-11T14:52:29.550Z,44.03
2023-09-11T14:54:56.377Z,43.60
2023-09-11T14:57:23.639Z,44.40
2023-09-11T14:59:50.706Z,44.12
2023-09-11T15:02:17.805Z,43.96
2023-09-11T15:04:51.039Z,44.31
2023-09-11T15:07:20.379Z,42.97
2023-09-11T15:09:48.667Z,43.76
2023-09-11T15:12:15.935Z,43.81
2023-09-11T15:14:43.439Z,43.80
2023-09-11T15:17:10.957Z,44.14
2023-09-11T15:19:38.073Z,43.69
2023-09-11T15:22:08.493Z,43.55
2023-09-11T15:24:36.377Z,45.51
2023-09-11T15:27:04.762Z,45.91
2023-09-11T15:29:31.720Z,46.93
2023-09-11T15:32:11.232Z,47.70
2023-09-11T15:34:42.084Z,48.89
2023-09-11T15:37:16.277Z,49.66
2023-09-11T15:39:44.021Z,48.69
2023-09-11T15:42:11.135Z,47.27
2023-09-11T15:44:38.229Z,46.64
2023-09-11T15:47:05.258Z,46.70
2023-09-11T15:49:31.987Z,45.75
2023-09-11T15:52:05.456Z,45.84
2023-09-11T15:54:34.383Z,45.75
2023-09-11T15:57:01.539Z,46.17
2023-09-11T15:59:28.638Z,46.41
2023-09-11T16:01:55.356Z,47.22
2023-09-11T16:04:22.326Z,47.49
2023-09-11T16:06:49.289Z,46.82
2023-09-11T16:09:16.251Z,48.10
2023-09-11T16:11:43.357Z,47.62
2023-09-11T16:14:10.307Z,47.72
2023-09-11T16:16:38.379Z,47.57
2023-09-11T16:19:05.286Z,48.08
2023-09-11T16:21:40.196Z,49.61
2023-09-11T16:24:09.060Z,49.65
2023-09-11T16:26:37.098Z,50.18
2023-09-11T16:29:03.869Z,50.21
2023-09-11T16:31:31.192Z,51.19
2023-09-11T16:33:58.740Z,51.31
2023-09-11T16:36:25.991Z,51.22
2023-09-11T16:38:53.028Z,50.62
2023-09-11T16:41:19.856Z,50.29
2023-09-11T16:43:46.659Z,51.09
2023-09-11T16:46:13.365Z,51.47
2023-09-11T16:48:40.754Z,52.09
2023-09-11T16:51:08.047Z,52.95
2023-09-11T16:53:35.027Z,52.77
2023-09-11T16:56:01.805Z,52.93
2023-09-11T16:58:28.479Z,53.50
2023-09-11T17:01:04.294Z,53.36
2023-09-11T17:03:31.200Z,53.41
2023-09-11T17:05:58.189Z,53.99
2023-09-11T17:08:25.089Z,54.12
2023-09-11T17:10:52.388Z,55.13
2023-09-11T17:13:21.175Z,55.14
2023-09-11T17:15:48.115Z,56.11
2023-09-11T17:18:15.366Z,56.51
2023-09-11T17:20:43.129Z,57.46
2023-09-11T17:23:11.900Z,57.60
2023-09-11T17:25:39.027Z,58.77
2023-09-11T17:28:05.952Z,59.26
2023-09-11T17:30:32.824Z,59.71
2023-09-11T17:32:59.686Z,59.78
2023-09-11T17:35:26.572Z,60.08
2023-09-11T17:37:53.311Z,61.12
2023-09-11T17:40:20.190Z,61.24
2023-09-11T17:42:47.351Z,61.75
2023-09-11T17:45:14.140Z,62.14
2023-09-11T17:47:41.421Z,62.41
2023-09-11T17:50:08.709Z,63.04
2023-09-11T17:52:35.852Z,63.27
2023-09-11T17:58:41.430Z,63.88
2023-09-11T18:01:08.446Z,63.67
2023-09-11T18:03:35.587Z,64.28
2023-09-11T18:06:02.582Z,64.19
2023-09-11T18:08:29.371Z,64.67
2023-09-11T18:10:56.157Z,64.84
2023-09-11T18:13:22.996Z,65.31
2023-09-11T18:15:51.132Z,66.03
2023-09-11T18:18:18.046Z,66.14
2023-09-11T18:20:45.814Z,66.42
2023-09-11T18:23:12.927Z,66.52
2023-09-11T18:25:40.373Z,66.87
2023-09-11T18:28:07.243Z,66.42
2023-09-11T18:30:34.529Z,67.16
2023-09-11T18:33:02.552Z,66.53
2023-09-11T18:35:29.842Z,66.73
2023-09-11T18:37:56.619Z,66.49
2023-09-11T18:40:23.343Z,66.48
2023-09-11T18:42:50.236Z,66.38
2023-09-11T18:45:17.409Z,67.21
2023-09-11T18:47:44.479Z,67.39
2023-09-11T18:50:11.313Z,67.47
2023-09-11T18:52:38.192Z,67.94
2023-09-11T18:55:05.683Z,68.31
2023-09-11T18:57:32.918Z,68.13
2023-09-11T18:59:59.814Z,68.19
2023-09-11T19:02:26.821Z,68.58
2023-09-11T19:04:53.645Z,68.91
2023-09-11T19:07:20.459Z,69.26
2023-09-11T19:09:47.669Z,70.09
2023-09-11T19:12:14.366Z,70.67
2023-09-11T19:14:41.176Z,70.37
2023-09-11T19:17:07.884Z,70.76
2023-09-11T19:19:36.350Z,71.02
2023-09-11T19:22:07.338Z,71.56
2023-09-11T19:24:34.614Z,71.54
2023-09-11T19:27:01.350Z,71.77
2023-09-11T19:29:28.693Z,71.65
2023-09-11T19:31:56.165Z,71.44
2023-09-11T19:34:23.052Z,71.31
2023-09-11T19:36:49.904Z,70.88
2023-09-11T19:39:17.298Z,70.64
2023-09-11T19:41:44.385Z,70.91
2023-09-11T19:44:13.779Z,71.24
2023-09-11T19:46:41.166Z,71.63
2023-09-11T19:49:07.992Z,72.11
2023-09-11T19:51:35.020Z,73.14
2023-09-11T19:54:01.868Z,73.84
2023-09-11T19:56:28.829Z,74.45
2023-09-11T19:58:55.589Z,74.65
2023-09-11T20:01:22.574Z,75.00
2023-09-11T20:03:49.578Z,75.12
2023-09-11T20:06:16.623Z,74.59
2023-09-11T20:08:43.739Z,74.95
2023-09-11T20:11:10.925Z,74.83
2023-09-11T20:13:37.783Z,74.92
2023-09-11T20:16:05.787Z,75.22
2023-09-11T20:18:33.523Z,76.22
2023-09-11T20:21:01.095Z,76.65
2023-09-11T20:23:27.953Z,76.90
2023-09-11T20:25:54.935Z,76.54
2023-09-11T20:28:21.701Z,76.50
2023-09-11T20:30:48.534Z,76.19
2023-09-11T20:33:15.347Z,76.72
2023-09-11T20:35:42.188Z,76.85
2023-09-11T20:38:08.944Z,76.93
2023-09-11T20:40:35.709Z,76.87
2023-09-11T20:43:03.733Z,76.30
2023-09-11T20:45:30.786Z,76.24
2023-09-11T20:47:57.846Z,75.99
2023-09-11T20:50:24.674Z,76.14
2023-09-11T20:52:51.528Z,76.50
2023-09-11T20:55:18.519Z,76.67
2023-09-11T20:57:47.999Z,76.40
2023-09-11T21:00:15.563Z,76.27
2023-09-11T21:02:42.463Z,76.68
2023-09-11T21:05:09.378Z,76.53
2023-09-11T21:07:36.248Z,75.99
2023-09-11T21:10:03.233Z,76.03
2023-09-11T21:12:30.029Z,75.92
2023-09-11T21:14:57.025Z,75.11
2023-09-11T21:17:23.788Z,74.74
2023-09-11T21:19:50.525Z,74.35
2023-09-11T21:22:17.914Z,74.54
2023-09-11T21:24:44.668Z,74.65
2023-09-11T21:27:11.469Z,74.69
2023-09-11T21:29:38.325Z,75.00
2023-09-11T21:32:05.497Z,75.02
2023-09-11T21:34:32.392Z,75.06
2023-09-11T21:37:00.835Z,75.39
2023-09-11T21:39:27.653Z,75.32
2023-09-11T21:41:54.504Z,75.79
2023-09-11T21:44:21.350Z,76.06
2023-09-11T21:46:48.284Z,76.58
2023-09-11T21:49:15.197Z,76.59
2023-09-11T21:51:42.043Z,76.75
2023-09-11T21:54:15.159Z,76.77
2023-09-11T21:56:43.150Z,77.18
2023-09-11T21:59:10.037Z,76.90
2023-09-11T22:01:37.325Z,77.27
2023-09-11T22:04:04.778Z,76.93
2023-09-11T22:06:31.779Z,77.23
2023-09-11T22:08:58.568Z,77.83
2023-09-11T22:11:25.439Z,77.50
2023-09-11T22:13:52.381Z,77.90
2023-09-11T22:16:19.576Z,78.18
2023-09-11T22:18:46.662Z,78.56
2023-09-11T22:21:13.509Z,78.68
2023-09-11T22:23:40.896Z,78.89
2023-09-11T22:26:07.787Z,79.24
2023-09-11T22:28:34.646Z,79.33
2023-09-11T22:31:01.627Z,79.76
2023-09-11T22:33:28.459Z,79.77
2023-09-11T22:35:55.660Z,79.59
2023-09-11T22:38:22.437Z,79.37
2023-09-11T22:40:49.217Z,79.61
2023-09-11T22:43:16.127Z,79.90
2023-09-11T22:45:42.975Z,80.23
2023-09-11T22:48:09.933Z,80.27
2023-09-11T22:50:38.880Z,80.40
2023-09-11T22:53:06.230Z,80.40
2023-09-11T22:55:37.323Z,80.33
2023-09-11T22:58:05.054Z,80.55
2023-09-11T23:00:36.069Z,80.59
2023-09-11T23:03:05.673Z,80.55
2023-09-11T23:05:32.875Z,80.48
2023-09-11T23:08:00.690Z,80.80
2023-09-11T23:10:28.894Z,80.45
2023-09-11T23:12:55.857Z,80.34
2023-09-11T23:15:22.953Z,80.22
2023-09-11T23:17:49.996Z,80.54
2023-09-11T23:20:17.173Z,80.63
2023-09-11T23:22:43.985Z,80.73
2023-09-11T23:25:10.899Z,80.98
2023-09-11T23:27:38.197Z,81.04
2023-09-11T23:30:06.102Z,81.31
2023-09-11T23:32:33.140Z,81.59
2023-09-11T23:35:00.014Z,81.65
2023-09-11T23:37:28.674Z,81.64
2023-09-11T23:39:55.400Z,81.74
2023-09-11T23:42:22.220Z,81.97
2023-09-11T23:44:49.297Z,81.87
2023-09-11T23:47:16.143Z,81.71
2023-09-11T23:49:42.933Z,81.72
2023-09-11T23:52:23.870Z,82.11
2023-09-11T23:54:54.307Z,82.23
